Time;durP1;ratioP1;P1;durP2;ratioP2;P2;SDS_P1;SDS_P2;PMS_P1;PMS_P2;Temp;Humidity;BMP_temperature;BMP_pressure;BME280_temperature;BME280_humidity;BME280_pressure;Samples;Min_cycle;Max_cycle;Signal;HPM_P1;HPM_P2
2022/08/03 00:00:41;;;;;;;6.63;6.00;;;20.80;13.10;;;20.91;53.02;101129.31;5035188;28;20479;-71
2022/08/03 00:03:10;;;;;;;10.13;7.03;;;20.80;13.00;;;20.83;53.07;101133.38;5020457;28;20507;-71
2022/08/03 00:05:39;;;;;;;6.70;6.10;;;20.80;13.20;;;20.72;53.94;101128.91;5018710;28;20776;-72
2022/08/03 00:08:28;;;;;;;9.60;7.37;;;20.70;13.80;;;20.68;53.70;101125.00;5022878;28;20440;-71
2022/08/03 00:11:00;;;;;;;10.23;6.20;;;20.50;13.90;;;20.67;54.46;101131.63;5020241;28;20419;-72
2022/08/03 00:13:28;;;;;;;12.20;8.00;;;20.50;14.50;;;20.67;54.18;101128.88;5020311;28;20517;-73
2022/08/03 00:15:57;;;;;;;6.90;6.00;;;20.50;14.70;;;20.69;54.13;101123.94;5025300;28;20442;-71
2022/08/03 00:18:26;;;;;;;11.00;6.93;;;20.50;15.00;;;20.74;54.86;101133.06;5020892;28;20453;-72
2022/08/03 00:20:55;;;;;;;9.80;6.27;;;20.50;15.60;;;20.73;54.84;101127.81;5023527;28;20439;-73
2022/08/03 00:23:23;;;;;;;7.23;6.53;;;20.50;16.20;;;20.72;54.67;101126.97;5023332;28;20447;-73
2022/08/03 00:25:53;;;;;;;7.63;6.70;;;20.50;15.90;;;20.78;54.76;101122.34;5022837;28;20453;-73
2022/08/03 00:28:23;;;;;;;8.50;6.77;;;20.60;16.00;;;20.77;54.02;101123.44;5024721;28;20943;-73
2022/08/03 00:30:54;;;;;;;6.90;5.70;;;20.60;15.70;;;20.81;53.02;101119.09;5021526;28;20422;-71
2022/08/03 00:33:23;;;;;;;7.10;6.10;;;20.60;14.60;;;20.87;53.49;101114.41;5023866;28;20435;-73
2022/08/03 00:35:54;;;;;;;6.60;5.97;;;20.60;14.60;;;20.89;53.48;101110.31;5023928;28;20411;-72
2022/08/03 00:38:23;;;;;;;7.73;5.97;;;20.60;15.20;;;20.87;54.01;101112.50;5027750;28;20449;-72
2022/08/03 00:40:52;;;;;;;7.97;6.83;;;20.70;15.40;;;20.86;53.82;101108.13;5024754;28;20514;-72
2022/08/03 00:43:27;;;;;;;8.57;6.77;;;20.70;15.10;;;20.82;54.01;101105.03;5025898;28;20474;-72
2022/08/03 00:45:56;;;;;;;11.17;6.93;;;20.60;15.30;;;20.79;54.37;101105.59;5028417;28;20470;-72
2022/08/03 00:48:24;;;;;;;6.20;5.60;;;20.60;16.10;;;20.76;54.59;101105.28;5024507;28;20531;-71
2022/08/03 00:51:01;;;;;;;11.77;6.97;;;20.60;16.40;;;20.76;54.82;101105.28;5030597;28;20433;-72
2022/08/03 00:53:30;;;;;;;8.30;6.40;;;20.60;16.60;;;20.72;54.73;101101.41;5028362;28;20471;-72
2022/08/03 00:55:59;;;;;;;9.07;6.67;;;20.60;16.80;;;20.72;55.16;101104.16;5018075;28;20463;-72
2022/08/03 00:58:30;;;;;;;4.87;4.37;;;20.60;16.90;;;20.66;55.00;101105.22;5024173;28;20455;-73
2022/08/03 01:00:59;;;;;;;6.40;5.00;;;20.50;16.90;;;20.63;55.14;101100.22;5028737;28;20828;-73
2022/08/03 01:03:28;;;;;;;6.43;5.80;;;20.50;17.00;;;20.57;55.63;101095.81;5020146;28;20990;-72
2022/08/03 01:06:07;;;;;;;5.20;4.70;;;20.40;17.70;;;20.65;55.33;101098.06;5027297;28;20449;-72
2022/08/03 01:08:48;;;;;;;7.50;4.43;;;20.40;17.80;;;20.58;55.15;101098.28;5023169;28;20414;-73
2022/08/03 01:11:38;;;;;;;7.40;6.13;;;20.40;17.80;;;20.48;55.61;101091.88;5026510;28;20415;-72
2022/08/03 01:14:38;;;;;;;6.20;5.70;;;20.40;18.10;;;20.42;55.88;101090.19;5026355;28;20884;-72
2022/08/03 01:17:18;;;;;;;6.33;4.97;;;20.30;18.40;;;20.39;56.01;101084.09;5027265;28;20507;-73
2022/08/03 01:19:56;;;;;;;5.93;5.33;;;20.20;18.70;;;20.37;55.82;101086.31;5021611;28;20464;-72
2022/08/03 01:23:07;;;;;;;5.27;4.60;;;20.20;18.70;;;20.37;54.68;101089.06;5030348;28;20441;-73
2022/08/03 01:26:04;;;;;;;6.50;5.10;;;20.20;17.70;;;20.38;54.19;101082.44;5011726;28;20410;-72
2022/08/03 01:28:56;;;;;;;5.03;4.50;;;20.20;16.90;;;20.51;53.26;101085.84;5000537;28;20443;-73
2022/08/03 01:31:36;;;;;;;6.77;5.07;;;20.30;16.00;;;20.65;52.99;101081.56;5028670;28;20430;-72
2022/08/03 01:34:36;;;;;;;6.10;4.70;;;20.40;15.70;;;20.75;52.05;101081.63;5031808;28;20526;-72
2022/08/03 01:37:09;;;;;;;6.97;4.40;;;20.50;14.50;;;20.81;52.07;101081.41;5031764;28;20454;-73
2022/08/03 01:39:41;;;;;;;8.90;4.60;;;20.60;14.40;;;20.93;51.65;101081.19;5028406;28;20526;-71
2022/08/03 01:42:14;;;;;;;7.33;4.63;;;20.70;13.70;;;21.04;50.69;101080.16;5030838;28;20467;-72
2022/08/03 01:44:47;;;;;;;9.17;5.47;;;20.80;13.10;;;21.02;51.18;101071.34;5030344;28;20467;-72
2022/08/03 01:47:22;;;;;;;5.37;4.23;;;20.80;12.90;;;21.16;49.99;101078.03;5025097;28;20530;-72
2022/08/03 01:49:54;;;;;;;4.87;4.47;;;20.90;12.10;;;21.10;50.43;101078.28;5021806;28;20747;-71
2022/08/03 01:52:25;;;;;;;12.00;4.30;;;20.90;11.90;;;21.07;50.42;101073.28;5028401;28;20451;-73
2022/08/03 01:54:56;;;;;;;7.70;5.13;;;20.90;11.90;;;21.14;50.12;101073.91;5026658;28;20950;-72
2022/08/03 01:57:29;;;;;;;5.13;4.00;;;21.00;11.50;;;21.28;49.68;101068.75;5030796;28;20412;-72
2022/08/03 02:00:01;;;;;;;5.60;4.20;;;21.00;11.30;;;21.23;49.56;101078.63;5033940;28;20438;-72
2022/08/03 02:02:43;;;;;;;8.93;4.57;;;21.00;10.90;;;21.31;49.19;101073.69;5023168;28;20429;-72
2022/08/03 02:05:16;;;;;;;4.53;3.40;;;21.10;10.60;;;21.24;49.40;101069.28;5029874;28;20458;-71
2022/08/03 02:07:48;;;;;;;5.97;4.70;;;21.10;10.60;;;21.19;49.43;101069.25;5027557;28;20497;-72
2022/08/03 02:10:21;;;;;;;4.90;4.40;;;21.00;10.60;;;21.24;49.23;101069.28;5018605;28;20419;-72
2022/08/03 02:13:08;;;;;;;7.80;5.87;;;21.10;10.10;;;21.34;48.84;101075.94;5017652;28;20523;-71
2022/08/03 02:15:39;;;;;;;5.87;5.27;;;21.10;9.90;;;21.36;48.52;101066.28;5025065;28;20742;-72
2022/08/03 02:18:11;;;;;;;5.43;4.57;;;21.10;9.50;;;21.44;48.69;101067.72;5033599;28;20486;-73
2022/08/03 02:20:43;;;;;;;8.50;4.97;;;21.20;9.60;;;21.44;48.25;101068.53;5033560;28;20521;-71
2022/08/03 02:23:14;;;;;;;6.27;4.77;;;21.20;9.20;;;21.62;48.12;101072.72;5041570;28;20541;-72
2022/08/03 02:25:50;;;;;;;6.00;5.40;;;21.30;9.00;;;21.51;48.05;101079.28;5030039;28;20889;-72
2022/08/03 02:28:25;;;;;;;6.63;4.30;;;21.30;8.90;;;21.46;48.20;101071.84;5031512;28;20488;-73
2022/08/03 02:30:56;;;;;;;4.47;4.03;;;21.30;8.70;;;21.41;48.20;101073.75;5027866;28;20409;-71
2022/08/03 02:33:32;;;;;;;15.33;5.03;;;21.30;8.90;;;21.39;48.10;101070.44;5026809;28;20460;-72
2022/08/03 02:36:03;;;;;;;5.87;3.90;;;21.20;8.70;;;21.37;48.65;101069.88;5029637;28;20470;-73
2022/08/03 02:38:36;;;;;;;5.13;4.50;;;21.20;9.00;;;21.40;48.42;101072.06;5030816;28;20557;-72
2022/08/03 02:41:13;;;;;;;6.90;4.97;;;21.20;8.80;;;21.37;48.48;101069.88;5024155;28;20437;-72
2022/08/03 02:43:48;;;;;;;5.60;5.07;;;21.20;8.70;;;21.31;48.31;101065.44;5028479;28;20438;-71
2022/08/03 02:46:39;;;;;;;4.70;3.97;;;21.10;8.60;;;21.35;48.47;101066.59;5025466;28;21019;-72
2022/08/03 02:49:13;;;;;;;5.47;4.93;;;21.20;8.90;;;21.39;47.80;101070.44;5024090;28;20414;-72
2022/08/03 02:52:04;;;;;;;7.27;4.40;;;21.20;8.50;;;21.32;48.19;101072.59;5023644;28;20406;-74
2022/08/03 02:54:41;;;;;;;5.03;4.53;;;21.10;8.50;;;21.37;48.18;101069.88;5026695;28;20450;-72
2022/08/03 02:57:12;;;;;;;4.27;3.87;;;21.20;8.60;;;21.31;48.70;101071.78;5026748;28;20411;-72
2022/08/03 02:59:43;;;;;;;6.13;4.30;;;21.20;8.80;;;21.22;48.56;101073.38;5022388;28;20420;-72
2022/08/03 03:02:16;;;;;;;5.97;4.47;;;21.10;8.80;;;21.20;48.60;101075.59;5023407;28;20415;-72
2022/08/03 03:04:50;;;;;;;8.97;4.90;;;21.00;8.80;;;21.30;48.29;101075.63;5028593;28;20515;-72
2022/08/03 03:07:40;;;;;;;9.33;4.63;;;21.10;8.60;;;21.28;48.40;101077.00;5023411;28;20939;-72
2022/08/03 03:10:22;;;;;;;4.63;4.23;;;21.10;8.60;;;21.20;48.79;101073.66;5026394;28;20493;-72
2022/08/03 03:12:56;;;;;;;6.33;4.10;;;21.10;8.70;;;21.14;48.72;101084.91;5027509;28;20474;-72
2022/08/03 03:15:29;;;;;;;4.80;4.40;;;21.00;8.70;;;21.07;49.04;101082.38;5031401;28;20431;-72
2022/08/03 03:18:01;;;;;;;5.30;4.03;;;21.00;8.90;;;20.97;49.39;101082.31;5029627;28;20456;-72
2022/08/03 03:20:34;;;;;;;8.10;4.70;;;20.90;9.10;;;20.89;49.52;101082.81;5025651;28;20467;-72
2022/08/03 03:23:05;;;;;;;4.60;4.20;;;20.80;9.50;;;20.80;49.91;101073.41;5023966;28;20492;-71
2022/08/03 03:25:36;;;;;;;4.70;3.40;;;20.70;9.60;;;20.72;50.25;101073.91;5035416;28;20479;-72
2022/08/03 03:28:06;;;;;;;5.50;4.70;;;20.70;9.90;;;20.66;50.57;101067.56;5037342;28;20450;-72
2022/08/03 03:30:35;;;;;;;3.90;3.60;;;20.60;10.10;;;20.58;50.54;101070.78;5039800;28;20463;-71
2022/08/03 03:33:04;;;;;;;4.90;4.40;;;20.50;11.00;;;20.53;50.70;101070.75;5037321;28;20797;-72
2022/08/03 03:35:35;;;;;;;5.70;4.67;;;20.40;10.70;;;20.48;51.09;101070.69;5027984;28;20499;-71
2022/08/03 03:38:07;;;;;;;6.47;5.50;;;20.40;11.00;;;20.44;51.02;101079.72;5026050;28;20460;-72
2022/08/03 03:40:36;;;;;;;4.90;4.50;;;20.30;11.10;;;20.35;51.43;101080.22;5026033;28;20954;-72
2022/08/03 03:43:09;;;;;;;4.90;4.10;;;20.30;11.10;;;20.37;51.48;101080.81;5025002;28;20442;-71
2022/08/03 03:45:41;;;;;;;4.97;4.47;;;20.30;11.30;;;20.32;51.40;101078.03;5027937;28;20945;-72
2022/08/03 03:48:10;;;;;;;6.33;4.70;;;20.20;11.40;;;20.31;51.68;101076.34;5031099;28;20417;-72
2022/08/03 03:50:41;;;;;;;6.10;4.80;;;20.20;11.60;;;20.33;51.74;101073.34;5035200;28;20409;-72
2022/08/03 03:53:11;;;;;;;5.90;4.13;;;20.10;11.70;;;20.36;51.54;101068.16;5031233;28;20484;-72
2022/08/03 03:55:41;;;;;;;5.53;3.67;;;20.20;11.80;;;20.43;51.63;101069.84;5026122;28;20450;-73
2022/08/03 03:58:31;;;;;;;6.93;4.87;;;20.20;11.80;;;20.55;51.42;101070.47;5024365;28;20840;-72
2022/08/03 04:01:00;;;;;;;5.77;4.70;;;20.20;11.90;;;20.81;51.10;101072.31;5015737;28;20462;-73
2022/08/03 04:03:30;;;;;;;4.93;4.43;;;20.40;12.00;;;21.79;49.42;101070.53;5031951;28;20438;-72
2022/08/03 04:11:38;;;;;;;5.13;4.63;;;22.30;8.60;;;25.90;40.72;101075.34;5024437;28;20486;-72
2022/08/03 04:14:13;;;;;;;7.50;5.10;;;23.20;7.20;;;26.82;38.77;101075.44;5031066;28;20472;-72
2022/08/03 04:16:49;;;;;;;6.10;4.80;;;23.70;5.60;;;27.50;37.84;101067.19;5027300;28;20428;-72
2022/08/03 04:19:24;;;;;;;6.97;5.40;;;24.40;4.20;;;27.87;36.98;101068.03;5021806;28;20440;-72
2022/08/03 04:22:01;;;;;;;6.90;5.90;;;24.80;3.10;;;28.42;36.97;101065.88;5025457;28;20428;-72
2022/08/03 04:24:38;;;;;;;5.80;4.87;;;25.20;2.80;;;28.85;35.84;101072.53;5019735;28;20453;-72
2022/08/03 04:27:11;;;;;;;6.07;4.97;;;25.30;1.90;;;28.85;35.90;101085.66;5026398;28;21010;-71
2022/08/03 04:29:47;;;;;;;5.33;4.70;;;25.60;1.30;;;29.24;34.82;101079.28;5021332;28;20976;-71
2022/08/03 04:32:19;;;;;;;6.77;5.70;;;25.80;1.00;;;29.85;33.07;101080.25;5030577;28;20436;-72
2022/08/03 04:34:48;;;;;;;4.93;4.43;;;26.20;1.00;;;30.32;33.12;101082.06;5025089;28;20448;-72
2022/08/03 04:37:33;;;;;;;5.43;4.37;;;26.40;1.00;;;30.58;32.23;101082.06;5026791;28;20448;-72
2022/08/03 04:40:07;;;;;;;4.73;4.20;;;26.70;1.00;;;30.47;32.27;101086.34;5023712;28;20438;-72
2022/08/03 04:42:38;;;;;;;7.17;4.80;;;27.20;1.00;;;30.83;31.65;101088.75;5026884;28;20455;-72
2022/08/03 04:45:12;;;;;;;4.47;3.60;;;27.30;1.00;;;31.05;31.29;101086.53;5025404;28;20428;-73
2022/08/03 04:47:42;;;;;;;4.97;4.47;;;27.30;1.00;;;31.51;30.94;101082.03;5031837;28;20470;-74
2022/08/03 04:50:12;;;;;;;6.67;3.70;;;27.30;1.00;;;31.42;30.99;101087.66;5035494;28;20506;-73
2022/08/03 04:53:06;;;;;;;4.17;3.77;;;27.50;1.00;;;30.72;31.42;101087.44;5032108;28;20463;-72
2022/08/03 04:55:36;;;;;;;8.90;3.90;;;27.60;1.00;;;29.28;33.62;101088.63;5012666;28;20493;-73
2022/08/03 04:58:06;;;;;;;5.13;4.07;;;26.90;1.00;;;29.07;33.74;101081.97;5025805;28;20525;-72
2022/08/03 05:00:34;;;;;;;5.57;4.10;;;26.90;1.00;;;30.37;32.51;101087.47;5023018;28;20483;-72
2022/08/03 05:03:04;;;;;;;4.03;3.63;;;27.00;1.00;;;31.29;30.76;101091.53;5016763;28;20464;-73
2022/08/03 05:05:52;;;;;;;7.70;4.27;;;27.30;1.00;;;32.25;28.92;101096.16;5025221;28;20554;-73
2022/08/03 05:08:40;;;;;;;5.03;3.53;;;27.70;1.00;;;32.51;29.24;101095.09;5027581;28;20466;-72
2022/08/03 05:11:18;;;;;;;4.50;4.10;;;28.10;1.00;;;32.19;29.27;101091.97;5027050;28;20436;-72
2022/08/03 05:13:47;;;;;;;4.30;3.60;;;28.10;1.00;;;32.42;29.16;101094.38;5026569;28;20480;-73
2022/08/03 05:16:17;;;;;;;5.63;3.60;;;28.60;1.00;;;32.73;28.92;101100.31;5015016;28;20429;-73
2022/08/03 05:18:46;;;;;;;4.13;3.77;;;28.70;1.00;;;32.86;28.35;101092.78;5028851;28;20448;-73
2022/08/03 05:21:15;;;;;;;6.20;5.17;;;28.70;1.00;;;32.57;28.21;101093.75;5026212;28;20451;-74
2022/08/03 05:23:46;;;;;;;4.37;3.97;;;28.90;1.00;;;33.31;26.92;101096.34;5030462;28;20474;-74
2022/08/03 05:26:15;;;;;;;4.30;3.90;;;28.70;1.00;;;33.74;27.18;101101.41;5027010;28;20479;-73
2022/08/03 05:28:44;;;;;;;5.20;4.10;;;28.90;1.00;;;33.55;27.17;101101.16;5021878;28;20436;-74
2022/08/03 05:31:19;;;;;;;5.10;4.20;;;29.10;1.00;;;32.09;28.60;101103.53;5025215;28;20438;-73
2022/08/03 05:33:48;;;;;;;6.33;5.73;;;28.80;1.00;;;29.89;30.70;101101.59;5028150;28;20467;-74
2022/08/03 05:36:17;;;;;;;5.50;4.33;;;28.60;1.00;;;28.29;33.52;101105.72;5023677;28;20441;-73
2022/08/03 05:38:47;;;;;;;6.80;4.10;;;27.40;1.00;;;26.96;35.64;101109.66;5027379;28;20444;-73
2022/08/03 05:41:16;;;;;;;4.50;4.00;;;26.70;1.00;;;26.45;35.85;101095.00;5024325;28;20753;-72
2022/08/03 05:43:52;;;;;;;5.23;4.37;;;26.40;1.00;;;25.96;37.24;101099.06;5026681;28;20656;-74
2022/08/03 05:46:22;;;;;;;6.50;3.40;;;25.80;1.00;;;25.70;37.58;101106.13;5025072;28;20497;-73
2022/08/03 05:48:52;;;;;;;4.87;4.10;;;25.40;1.00;;;25.53;37.54;101112.94;5028533;28;20962;-74
2022/08/03 05:51:21;;;;;;;4.10;3.40;;;25.20;1.00;;;25.43;38.52;101104.75;5026938;28;20440;-73
2022/08/03 05:53:51;;;;;;;4.97;4.03;;;25.10;1.00;;;25.56;37.93;101106.03;5030887;28;20459;-72
2022/08/03 05:56:24;;;;;;;5.47;4.97;;;25.20;1.00;;;25.44;38.01;101109.16;5031564;28;20475;-74
2022/08/03 05:58:53;;;;;;;6.83;4.33;;;25.00;1.00;;;25.47;38.14;101108.56;5034650;28;20467;-74
2022/08/03 06:01:22;;;;;;;6.40;5.30;;;25.10;1.00;;;25.56;38.79;101116.28;5027656;28;20433;-72
2022/08/03 06:03:52;;;;;;;5.80;3.70;;;25.10;1.00;;;25.55;38.27;101117.41;5032428;28;20891;-72
2022/08/03 06:06:21;;;;;;;5.40;4.80;;;25.10;1.00;;;25.55;39.21;101114.63;5028778;28;20525;-73
2022/08/03 06:08:53;;;;;;;6.00;4.43;;;25.00;1.00;;;25.68;39.03;101114.72;5027988;28;20463;-73
2022/08/03 06:11:22;;;;;;;5.10;4.40;;;25.20;1.00;;;25.81;38.25;101111.19;5022899;28;20471;-73
2022/08/03 06:13:51;;;;;;;4.23;3.20;;;25.30;1.00;;;25.85;37.31;101115.03;5033388;28;20460;-73
2022/08/03 06:16:19;;;;;;;9.83;4.23;;;25.40;1.00;;;25.97;37.69;101111.81;5028780;28;20473;-72
2022/08/03 06:18:48;;;;;;;5.13;3.93;;;25.50;1.00;;;25.99;37.75;101105.97;5035014;28;20499;-73
2022/08/03 06:21:17;;;;;;;6.20;4.30;;;25.50;1.00;;;26.26;37.31;101109.72;5026856;28;20449;-73
2022/08/03 06:23:47;;;;;;;8.20;3.80;;;25.80;1.00;;;26.36;37.44;101115.13;5040103;28;20581;-71
2022/08/03 06:26:28;;;;;;;5.03;3.63;;;25.90;1.00;;;26.52;37.01;101109.31;5028229;28;20470;-72
2022/08/03 06:28:57;;;;;;;5.17;3.73;;;26.10;1.00;;;26.54;37.42;101115.38;5036566;28;20444;-72
2022/08/03 06:31:28;;;;;;;6.80;3.20;;;26.10;1.00;;;26.57;37.30;101112.00;5030456;28;20945;-75
2022/08/03 06:34:05;;;;;;;5.90;4.20;;;26.10;1.00;;;26.72;36.85;101111.75;5035343;28;20459;-72
2022/08/03 06:36:54;;;;;;;7.23;3.00;;;26.20;1.00;;;26.83;36.94;101111.25;5037539;28;20674;-73
2022/08/03 06:39:30;;;;;;;6.00;3.47;;;26.30;1.00;;;26.85;36.53;101116.50;5035016;28;20432;-72
2022/08/03 06:42:00;;;;;;;6.43;3.43;;;26.30;1.00;;;26.96;36.87;101112.44;5035306;28;20810;-73
2022/08/03 06:44:29;;;;;;;6.03;3.70;;;26.40;1.00;;;27.09;36.74;101114.41;5036643;28;20487;-74
2022/08/03 06:46:58;;;;;;;4.33;3.93;;;26.60;1.00;;;27.25;35.85;101104.63;5026976;28;20469;-73
2022/08/03 06:49:27;;;;;;;3.97;3.57;;;26.70;1.00;;;27.36;36.11;101107.19;5024600;28;20935;-74
2022/08/03 06:51:56;;;;;;;10.57;3.97;;;26.80;1.00;;;27.51;35.38;101109.69;5015013;28;20459;-73
2022/08/03 06:54:37;;;;;;;4.37;3.57;;;27.00;1.00;;;27.63;35.55;101108.06;5030044;28;20546;-74
2022/08/03 06:57:10;;;;;;;3.73;3.23;;;27.20;1.00;;;27.58;35.03;101102.59;5021364;28;20436;-72
2022/08/03 06:59:39;;;;;;;3.93;3.20;;;27.20;1.00;;;27.66;35.26;101109.38;5033150;28;20541;-73
2022/08/03 07:02:28;;;;;;;4.20;3.30;;;27.20;1.00;;;27.80;35.01;101112.94;5034331;28;20950;-72
2022/08/03 07:04:58;;;;;;;4.67;3.40;;;27.30;1.00;;;27.76;34.79;101105.56;5030970;28;20439;-73
2022/08/03 07:07:27;;;;;;;4.23;2.80;;;27.30;1.00;;;27.93;34.50;101103.75;5016975;28;20464;-73
2022/08/03 07:09:56;;;;;;;3.63;2.90;;;27.50;1.00;;;27.94;34.88;101099.84;5024943;28;20452;-71
2022/08/03 07:12:29;;;;;;;3.47;2.40;;;27.60;1.00;;;28.06;34.37;101100.13;5036793;28;20438;-73
2022/08/03 07:15:00;;;;;;;4.70;2.80;;;27.60;1.00;;;28.19;34.76;101100.41;5035057;28;20929;-74
2022/08/03 07:17:34;;;;;;;4.13;2.70;;;27.70;1.00;;;28.23;35.06;101101.41;5025637;28;20464;-74
2022/08/03 07:20:06;;;;;;;4.43;3.07;;;27.90;1.00;;;28.25;34.38;101102.75;5017421;28;20452;-73
2022/08/03 07:22:36;;;;;;;4.60;2.30;;;27.90;1.00;;;28.40;34.83;101109.91;5024639;28;20460;-72
2022/08/03 07:25:06;;;;;;;5.97;3.30;;;28.00;1.00;;;28.49;34.64;101105.22;5021622;28;20455;-72
2022/08/03 07:27:37;;;;;;;3.53;2.53;;;28.10;1.00;;;28.48;34.39;101104.41;5013241;28;21044;-73
2022/08/03 07:30:08;;;;;;;8.40;3.07;;;28.20;1.00;;;28.58;34.80;101100.53;5029580;28;20689;-73
2022/08/03 07:32:38;;;;;;;7.67;3.60;;;28.20;1.00;;;28.73;33.92;101099.34;5009562;28;20787;-74
2022/08/03 07:35:18;;;;;;;4.20;2.63;;;28.30;1.00;;;28.99;33.63;101108.66;5019982;28;20432;-75
2022/08/03 07:37:53;;;;;;;6.83;2.77;;;28.50;1.00;;;28.94;33.86;101109.63;5026869;28;20442;-73
2022/08/03 07:40:23;;;;;;;5.43;3.20;;;28.50;1.00;;;29.03;33.48;101097.69;5021630;28;20466;-74
2022/08/03 07:43:02;;;;;;;9.43;3.00;;;28.60;1.00;;;29.13;33.09;101108.56;5027375;28;20880;-73
2022/08/03 07:45:32;;;;;;;3.70;2.50;;;28.70;1.00;;;29.12;33.06;101101.34;5028829;28;20436;-74
2022/08/03 07:48:01;;;;;;;9.03;3.50;;;28.70;1.00;;;29.20;33.43;101103.34;5028184;28;20529;-72
2022/08/03 07:50:30;;;;;;;4.77;3.97;;;28.80;1.00;;;29.25;33.41;101100.41;5025104;28;20849;-73
2022/08/03 07:52:59;;;;;;;7.20;2.70;;;28.90;1.00;;;29.17;33.00;101101.19;5022503;28;20908;-74
2022/08/03 07:55:29;;;;;;;3.87;3.00;;;28.80;1.00;;;29.32;33.47;101106.38;5027747;28;20818;-73
2022/08/03 07:58:10;;;;;;;6.30;3.03;;;28.90;1.00;;;29.51;33.05;101106.09;5029765;28;20439;-73
2022/08/03 08:00:40;;;;;;;4.60;3.10;;;29.00;1.00;;;29.58;33.03;101104.47;5029288;28;20528;-73
2022/08/03 08:03:09;;;;;;;3.60;2.50;;;29.20;1.00;;;29.67;32.66;101108.13;5026161;28;20519;-73
2022/08/03 08:05:38;;;;;;;3.90;3.50;;;29.30;1.00;;;29.83;32.74;101104.84;5019358;28;20448;-72
2022/08/03 08:08:07;;;;;;;2.57;2.37;;;29.40;1.00;;;29.97;32.10;101106.38;5027355;28;20471;-72
2022/08/03 08:10:37;;;;;;;4.80;4.30;;;29.60;1.00;;;30.01;32.11;101101.81;5025971;28;20534;-74
2022/08/03 08:13:07;;;;;;;3.67;2.97;;;29.60;1.00;;;30.11;31.82;101100.66;5025418;28;20517;-73
2022/08/03 08:15:36;;;;;;;4.63;2.90;;;29.70;1.00;;;30.17;31.58;101104.91;5030881;28;20486;-74
2022/08/03 08:18:11;;;;;;;3.00;2.70;;;29.70;1.00;;;30.24;31.29;101102.44;5029716;28;20486;-74
2022/08/03 08:20:40;;;;;;;3.03;2.73;;;29.80;1.00;;;30.29;31.31;101107.88;5039520;28;20479;-73
2022/08/03 08:23:11;;;;;;;3.20;2.60;;;29.90;1.00;;;30.55;31.16;101103.09;5032268;28;20472;-74
2022/08/03 08:26:00;;;;;;;6.30;3.20;;;30.10;1.00;;;30.61;31.28;101112.13;5025601;28;20436;-74
2022/08/03 08:28:30;;;;;;;4.97;4.47;;;30.10;1.00;;;30.62;30.86;101103.41;5008200;28;20878;-73
2022/08/03 08:31:01;;;;;;;2.40;2.13;;;30.10;1.00;;;30.74;30.65;101108.31;5031252;28;20493;-74
2022/08/03 08:33:31;;;;;;;4.50;2.83;;;30.20;1.00;;;30.64;29.90;101108.69;5028835;28;20466;-74
2022/08/03 08:36:20;;;;;;;3.33;2.87;;;30.20;1.00;;;30.57;29.91;101105.56;5011090;28;20487;-73
2022/08/03 08:38:49;;;;;;;4.23;3.83;;;30.20;1.00;;;30.65;29.81;101108.31;5023175;28;20879;-73
2022/08/03 08:41:18;;;;;;;2.73;2.30;;;30.30;1.00;;;30.46;30.11;101105.06;5027527;28;20448;-73
2022/08/03 08:43:48;;;;;;;2.80;2.30;;;30.10;1.00;;;30.67;29.75;101109.97;5022569;28;20484;-73
2022/08/03 08:46:19;;;;;;;6.43;2.87;;;30.30;1.00;;;30.82;29.76;101104.69;5030586;28;20498;-73
2022/08/03 08:48:53;;;;;;;5.63;2.60;;;30.30;1.00;;;30.97;29.66;101100.53;5028935;28;20480;-72
2022/08/03 08:51:29;;;;;;;2.03;1.83;;;30.40;1.00;;;30.86;28.95;101100.06;5033432;28;20439;-72
2022/08/03 08:54:21;;;;;;;7.40;3.03;;;30.40;1.00;;;30.83;29.15;101100.75;5020875;28;20571;-73
2022/08/03 08:56:52;;;;;;;2.60;2.20;;;30.50;1.00;;;30.85;29.68;101105.97;5030008;28;20510;-73
2022/08/03 08:59:24;;;;;;;3.80;2.47;;;30.50;1.00;;;30.91;29.29;101104.66;5010255;28;20448;-74
2022/08/03 09:01:57;;;;;;;4.03;2.37;;;30.50;1.00;;;30.97;28.75;101103.31;5026034;28;20444;-73
2022/08/03 09:04:28;;;;;;;2.80;2.50;;;30.60;1.00;;;31.06;28.59;101104.13;5033290;28;20459;-73
2022/08/03 09:06:57;;;;;;;2.40;1.90;;;30.60;1.00;;;31.17;28.30;101104.59;5031347;28;20556;-74
2022/08/03 09:09:46;;;;;;;3.43;3.13;;;30.70;1.00;;;31.36;28.53;101105.81;5020760;28;20448;-74
2022/08/03 09:12:40;;;;;;;3.10;2.30;;;30.90;1.00;;;31.40;28.09;101087.19;5026212;28;20468;-72
2022/08/03 09:15:24;;;;;;;2.90;2.60;;;30.90;1.00;;;31.28;28.67;101097.44;5010593;28;20438;-75
2022/08/03 09:17:56;;;;;;;3.10;2.90;;;30.90;1.00;;;31.47;28.27;101086.66;5026789;28;20945;-73
2022/08/03 09:20:31;;;;;;;7.10;6.40;;;31.00;1.00;;;31.23;28.38;101087.28;5026988;28;20511;-72
2022/08/03 09:23:03;;;;;;;3.10;2.80;;;30.90;1.00;;;31.16;28.80;101084.19;5013029;28;20840;-73
2022/08/03 09:26:00;;;;;;;4.83;2.90;;;30.90;1.00;;;31.28;28.74;101084.28;5018802;28;20530;-72
2022/08/03 09:28:36;;;;;;;2.80;2.60;;;30.90;1.00;;;31.34;28.39;101082.13;5026060;28;20508;-72
2022/08/03 09:31:37;;;;;;;5.00;2.93;;;30.90;1.00;;;31.50;28.75;101084.00;5031130;28;20519;-74
2022/08/03 09:34:08;;;;;;;3.83;2.80;;;31.10;1.00;;;31.49;28.46;101079.56;5018375;28;20467;-73
2022/08/03 09:36:41;;;;;;;3.10;2.80;;;31.10;1.00;;;31.35;28.67;101079.00;5025656;28;20440;-73
2022/08/03 09:39:13;;;;;;;3.43;2.90;;;30.90;1.00;;;31.28;28.66;101077.88;5026532;28;20926;-72
2022/08/03 09:41:44;;;;;;;2.90;2.70;;;30.90;1.00;;;31.34;29.13;101071.75;5024603;28;20945;-73
2022/08/03 09:44:13;;;;;;;3.63;2.70;;;30.90;1.00;;;31.52;29.26;101076.09;5017873;28;20460;-73
2022/08/03 09:46:56;;;;;;;2.70;2.50;;;31.00;1.00;;;31.58;28.95;101075.94;5021406;28;20450;-74
2022/08/03 09:49:25;;;;;;;2.60;2.30;;;31.10;1.00;;;31.84;28.74;101082.16;5017743;28;20476;-73
2022/08/03 09:51:54;;;;;;;3.03;2.30;;;31.30;1.00;;;31.87;28.26;101076.69;5004052;28;20959;-72
2022/08/03 09:54:45;;;;;;;2.93;2.73;;;31.40;1.00;;;31.64;28.81;101080.16;5020310;28;20774;-73
2022/08/03 09:57:23;;;;;;;3.27;2.87;;;31.30;1.00;;;31.75;29.04;101073.84;5025774;28;20452;-73
2022/08/03 09:59:56;;;;;;;3.50;3.20;;;31.30;1.00;;;31.75;28.91;101082.25;5030406;28;20589;-71
2022/08/03 10:02:43;;;;;;;3.23;2.33;;;31.40;1.00;;;31.68;28.70;101070.75;5023316;28;20460;-73
2022/08/03 10:05:13;;;;;;;3.70;3.07;;;31.30;1.00;;;31.84;28.89;101069.00;5027821;28;20444;-72
2022/08/03 10:07:49;;;;;;;3.83;3.33;;;31.40;1.00;;;32.02;28.28;101066.88;5028721;28;20443;-72
2022/08/03 10:10:19;;;;;;;5.23;4.73;;;31.50;1.00;;;32.05;28.25;101062.59;5025260;28;20479;-73
2022/08/03 10:13:01;;;;;;;4.70;2.83;;;31.60;1.00;;;32.10;28.15;101063.19;5022439;28;20965;-75
2022/08/03 10:15:30;;;;;;;2.80;2.60;;;31.70;1.00;;;32.31;28.34;101055.59;5022244;28;20845;-73
2022/08/03 10:18:21;;;;;;;3.93;2.30;;;31.80;1.00;;;32.29;27.87;101057.91;5027368;28;20633;-72
2022/08/03 10:20:55;;;;;;;4.00;2.17;;;31.80;1.00;;;32.14;28.23;101054.97;5021961;28;20438;-73
2022/08/03 10:23:25;;;;;;;2.23;2.03;;;31.70;1.00;;;32.37;28.12;101052.59;5006307;28;20463;-72
2022/08/03 10:26:02;;;;;;;2.63;2.00;;;31.80;1.00;;;32.51;27.48;101053.91;5026194;28;21024;-71
2022/08/03 10:28:39;;;;;;;2.90;2.60;;;32.00;1.00;;;32.65;27.85;101048.84;5027894;28;20482;-72
2022/08/03 10:31:14;;;;;;;3.40;2.60;;;32.10;1.00;;;32.74;27.25;101043.94;5011673;28;21031;-72
2022/08/03 10:33:50;;;;;;;3.40;2.60;;;32.10;1.00;;;32.92;27.20;101046.56;5016848;28;20989;-72
2022/08/03 10:36:24;;;;;;;2.80;2.47;;;32.30;1.00;;;33.00;27.14;101037.22;5026813;28;20848;-72
2022/08/03 10:38:55;;;;;;;4.07;2.80;;;32.40;1.00;;;33.09;26.90;101041.53;5029977;28;20436;-73
2022/08/03 10:41:32;;;;;;;3.33;3.03;;;32.60;1.00;;;33.16;26.99;101036.16;5032887;28;20461;-73
2022/08/03 10:44:08;;;;;;;3.43;2.70;;;32.70;1.00;;;33.13;27.02;101039.66;5031622;28;20473;-73
2022/08/03 10:46:40;;;;;;;3.77;3.47;;;32.60;1.00;;;33.09;26.86;101040.72;5030811;28;20453;-74
2022/08/03 10:49:17;;;;;;;2.70;2.20;;;32.70;1.00;;;32.83;27.39;101035.44;5038938;28;20479;-73
2022/08/03 10:52:04;;;;;;;3.77;3.40;;;32.40;1.00;;;32.92;27.05;101033.34;5038928;28;20475;-72